EBBE

Beauvechain Air Base Airport

Beauvechain, Belgium
METAR EBBE 231053Z 03005KT 5000 BR FEW014 SCT020 BKN030 19/15 Q1019 WHT WHT TEMPO GRN
Observed Flight Rules
May-23 @ 10:53 UTC (14 minutes ago) Marginal Visual Flight Rules
Wind Visibility Clouds Conditions
30° at 5 knots 5,005 meters
  • Few at 1,400' AGL
  • Scattered at 2,000' AGL
  • Broken at 3,000' AGL
  • Mist
Temperatures Readings
Current 19°C / 66°F
Dewpoint 15°C / 59°F
Humidity 78%
Altimeter 30.09" Hg
Pressure 1019 hPa
Elevation 127
METAR EBBE 231053Z 03005KT 5000 BR FEW014 SCT020 BKN030 19/15 Q1019 WHT WHT TEMPO GRN
Observed Flight Rules
May-23 @ 10:53 UTC
(14 minutes ago)
MVFR
Wind Visibility
30° at 5 knots 5,005 meters
Clouds
  • Few at 1,400' AGL
  • Scattered at 2,000' AGL
  • Broken at 3,000' AGL
Conditions
  • Mist
Temperature Dewpoint
19°C / 66°F 15°C / 59°F
Humidity Altimeter Pressure
78% 30.09" Hg 1019 hPa